sensor_id;sensor_type;location;lat;lon;timestamp;P1;durP1;ratioP1;P2;durP2;ratioP2
12587;SDS011;6359;51.450;7.346;2023-04-22T00:00:23;21.15;;;8.65;;
12587;SDS011;6359;51.450;7.346;2023-04-22T00:02:51;14.00;;;8.93;;
12587;SDS011;6359;51.450;7.346;2023-04-22T00:05:20;12.27;;;9.25;;
12587;SDS011;6359;51.450;7.346;2023-04-22T00:07:48;16.48;;;9.13;;
12587;SDS011;6359;51.450;7.346;2023-04-22T00:10:15;12.85;;;8.93;;
12587;SDS011;6359;51.450;7.346;2023-04-22T00:12:42;14.07;;;8.55;;
12587;SDS011;6359;51.450;7.346;2023-04-22T00:15:09;18.02;;;12.00;;
12587;SDS011;6359;51.450;7.346;2023-04-22T00:17:36;15.05;;;8.93;;
12587;SDS011;6359;51.450;7.346;2023-04-22T00:20:04;13.25;;;9.20;;
12587;SDS011;6359;51.450;7.346;2023-04-22T00:22:34;14.35;;;9.45;;
12587;SDS011;6359;51.450;7.346;2023-04-22T00:25:03;14.35;;;8.48;;
12587;SDS011;6359;51.450;7.346;2023-04-22T00:27:30;18.73;;;8.95;;
12587;SDS011;6359;51.450;7.346;2023-04-22T00:29:57;12.93;;;9.10;;
12587;SDS011;6359;51.450;7.346;2023-04-22T00:32:24;15.45;;;8.90;;
12587;SDS011;6359;51.450;7.346;2023-04-22T00:34:51;10.68;;;8.52;;
12587;SDS011;6359;51.450;7.346;2023-04-22T00:37:18;13.00;;;9.02;;
12587;SDS011;6359;51.450;7.346;2023-04-22T00:39:45;13.23;;;8.50;;
12587;SDS011;6359;51.450;7.346;2023-04-22T00:42:13;13.57;;;8.20;;
12587;SDS011;6359;51.450;7.346;2023-04-22T00:44:41;18.42;;;8.88;;
12587;SDS011;6359;51.450;7.346;2023-04-22T00:47:09;13.48;;;8.77;;
12587;SDS011;6359;51.450;7.346;2023-04-22T00:49:35;13.88;;;8.63;;
12587;SDS011;6359;51.450;7.346;2023-04-22T00:52:02;16.23;;;9.13;;
12587;SDS011;6359;51.450;7.346;2023-04-22T00:54:29;11.60;;;8.20;;
12587;SDS011;6359;51.450;7.346;2023-04-22T00:56:57;14.82;;;9.07;;
12587;SDS011;6359;51.450;7.346;2023-04-22T00:59:25;13.43;;;9.45;;
12587;SDS011;6359;51.450;7.346;2023-04-22T01:01:52;14.38;;;9.38;;
12587;SDS011;6359;51.450;7.346;2023-04-22T01:04:20;16.38;;;8.80;;
12587;SDS011;6359;51.450;7.346;2023-04-22T01:06:48;11.82;;;8.75;;
12587;SDS011;6359;51.450;7.346;2023-04-22T01:09:17;11.38;;;8.80;;
12587;SDS011;6359;51.450;7.346;2023-04-22T01:11:44;12.50;;;8.35;;
12587;SDS011;6359;51.450;7.346;2023-04-22T01:14:12;11.57;;;8.50;;
12587;SDS011;6359;51.450;7.346;2023-04-22T01:16:40;13.05;;;9.35;;
12587;SDS011;6359;51.450;7.346;2023-04-22T01:19:08;13.73;;;9.65;;
12587;SDS011;6359;51.450;7.346;2023-04-22T01:21:36;13.90;;;9.75;;
12587;SDS011;6359;51.450;7.346;2023-04-22T01:24:06;13.07;;;8.93;;
12587;SDS011;6359;51.450;7.346;2023-04-22T01:26:33;14.65;;;8.90;;
12587;SDS011;6359;51.450;7.346;2023-04-22T01:29:00;15.27;;;9.35;;
12587;SDS011;6359;51.450;7.346;2023-04-22T01:31:28;12.27;;;8.55;;
12587;SDS011;6359;51.450;7.346;2023-04-22T01:33:55;15.82;;;8.77;;
12587;SDS011;6359;51.450;7.346;2023-04-22T01:36:22;12.98;;;8.32;;
12587;SDS011;6359;51.450;7.346;2023-04-22T01:38:49;14.73;;;9.32;;
12587;SDS011;6359;51.450;7.346;2023-04-22T01:41:18;14.27;;;9.15;;
12587;SDS011;6359;51.450;7.346;2023-04-22T01:43:45;14.68;;;8.50;;
12587;SDS011;6359;51.450;7.346;2023-04-22T01:46:12;17.70;;;9.82;;
12587;SDS011;6359;51.450;7.346;2023-04-22T01:48:39;14.45;;;9.35;;
12587;SDS011;6359;51.450;7.346;2023-04-22T01:51:05;13.85;;;8.95;;
12587;SDS011;6359;51.450;7.346;2023-04-22T01:53:32;12.70;;;9.48;;
12587;SDS011;6359;51.450;7.346;2023-04-22T01:56:00;15.48;;;9.65;;
12587;SDS011;6359;51.450;7.346;2023-04-22T01:58:29;11.88;;;8.43;;
12587;SDS011;6359;51.450;7.346;2023-04-22T02:00:58;15.93;;;9.82;;
12587;SDS011;6359;51.450;7.346;2023-04-22T02:03:25;15.90;;;10.25;;
12587;SDS011;6359;51.450;7.346;2023-04-22T02:05:51;13.85;;;9.88;;
12587;SDS011;6359;51.450;7.346;2023-04-22T02:08:18;13.15;;;9.55;;
12587;SDS011;6359;51.450;7.346;2023-04-22T02:10:45;15.18;;;9.68;;
12587;SDS011;6359;51.450;7.346;2023-04-22T02:13:12;14.05;;;9.52;;
12587;SDS011;6359;51.450;7.346;2023-04-22T02:15:40;13.70;;;9.82;;
12587;SDS011;6359;51.450;7.346;2023-04-22T02:18:07;11.43;;;8.77;;
12587;SDS011;6359;51.450;7.346;2023-04-22T02:20:35;14.07;;;9.35;;
12587;SDS011;6359;51.450;7.346;2023-04-22T02:23:02;14.57;;;9.25;;
12587;SDS011;6359;51.450;7.346;2023-04-22T02:25:29;16.02;;;10.25;;
12587;SDS011;6359;51.450;7.346;2023-04-22T02:27:56;12.90;;;9.45;;
12587;SDS011;6359;51.450;7.346;2023-04-22T02:30:23;16.85;;;9.43;;
12587;SDS011;6359;51.450;7.346;2023-04-22T02:32:51;16.52;;;10.38;;
12587;SDS011;6359;51.450;7.346;2023-04-22T02:35:18;15.27;;;9.38;;
12587;SDS011;6359;51.450;7.346;2023-04-22T02:37:45;14.07;;;9.35;;
12587;SDS011;6359;51.450;7.346;2023-04-22T02:40:12;17.33;;;10.68;;
12587;SDS011;6359;51.450;7.346;2023-04-22T02:42:39;21.17;;;10.02;;
12587;SDS011;6359;51.450;7.346;2023-04-22T02:45:06;12.13;;;9.18;;
12587;SDS011;6359;51.450;7.346;2023-04-22T02:47:33;15.35;;;9.32;;
12587;SDS011;6359;51.450;7.346;2023-04-22T02:50:01;12.93;;;9.27;;
12587;SDS011;6359;51.450;7.346;2023-04-22T02:52:28;15.52;;;9.48;;
12587;SDS011;6359;51.450;7.346;2023-04-22T02:54:55;16.38;;;9.07;;
12587;SDS011;6359;51.450;7.346;2023-04-22T02:57:22;16.05;;;9.68;;
12587;SDS011;6359;51.450;7.346;2023-04-22T02:59:49;13.35;;;9.48;;
12587;SDS011;6359;51.450;7.346;2023-04-22T03:02:16;16.75;;;9.98;;
12587;SDS011;6359;51.450;7.346;2023-04-22T03:04:43;12.50;;;9.43;;
12587;SDS011;6359;51.450;7.346;2023-04-22T03:07:11;19.48;;;10.90;;
12587;SDS011;6359;51.450;7.346;2023-04-22T03:09:38;17.58;;;10.38;;
12587;SDS011;6359;51.450;7.346;2023-04-22T03:12:05;14.73;;;9.02;;
12587;SDS011;6359;51.450;7.346;2023-04-22T03:14:32;13.50;;;9.05;;
12587;SDS011;6359;51.450;7.346;2023-04-22T03:16:59;14.05;;;9.02;;
12587;SDS011;6359;51.450;7.346;2023-04-22T03:19:26;13.75;;;9.43;;
12587;SDS011;6359;51.450;7.346;2023-04-22T03:21:52;13.57;;;9.00;;
12587;SDS011;6359;51.450;7.346;2023-04-22T03:24:21;15.02;;;9.10;;
12587;SDS011;6359;51.450;7.346;2023-04-22T03:26:48;16.45;;;10.10;;
12587;SDS011;6359;51.450;7.346;2023-04-22T03:29:15;14.48;;;9.27;;
12587;SDS011;6359;51.450;7.346;2023-04-22T03:31:42;15.10;;;9.88;;
12587;SDS011;6359;51.450;7.346;2023-04-22T03:34:09;19.80;;;10.15;;
12587;SDS011;6359;51.450;7.346;2023-04-22T03:36:36;15.90;;;9.02;;
12587;SDS011;6359;51.450;7.346;2023-04-22T03:39:03;12.80;;;9.25;;
12587;SDS011;6359;51.450;7.346;2023-04-22T03:41:31;18.88;;;8.88;;
12587;SDS011;6359;51.450;7.346;2023-04-22T03:43:58;13.02;;;8.90;;
12587;SDS011;6359;51.450;7.346;2023-04-22T03:46:25;13.77;;;9.52;;
12587;SDS011;6359;51.450;7.346;2023-04-22T03:48:51;14.43;;;9.35;;
12587;SDS011;6359;51.450;7.346;2023-04-22T03:51:18;11.07;;;8.77;;
12587;SDS011;6359;51.450;7.346;2023-04-22T03:53:45;14.00;;;8.52;;
12587;SDS011;6359;51.450;7.346;2023-04-22T03:56:20;12.35;;;8.00;;
12587;SDS011;6359;51.450;7.346;2023-04-22T03:59:14;13.07;;;8.73;;
12587;SDS011;6359;51.450;7.346;2023-04-22T04:01:44;15.10;;;8.68;;
12587;SDS011;6359;51.450;7.346;2023-04-22T04:04:25;11.52;;;7.88;;
12587;SDS011;6359;51.450;7.346;2023-04-22T04:06:53;10.10;;;8.05;;
12587;SDS011;6359;51.450;7.346;2023-04-22T04:09:33;10.13;;;8.43;;
12587;SDS011;6359;51.450;7.346;2023-04-22T04:12:40;9.30;;;7.40;;
12587;SDS011;6359;51.450;7.346;2023-04-22T04:15:26;11.25;;;7.93;;
12587;SDS011;6359;51.450;7.346;2023-04-22T04:18:02;11.77;;;8.40;;
12587;SDS011;6359;51.450;7.346;2023-04-22T04:20:45;12.90;;;8.10;;
12587;SDS011;6359;51.450;7.346;2023-04-22T04:23:15;10.13;;;8.38;;
12587;SDS011;6359;51.450;7.346;2023-04-22T04:25:59;10.55;;;8.02;;
12587;SDS011;6359;51.450;7.346;2023-04-22T04:28:46;11.75;;;8.02;;
12587;SDS011;6359;51.450;7.346;2023-04-22T04:31:21;10.82;;;7.78;;
12587;SDS011;6359;51.450;7.346;2023-04-22T04:33:48;13.98;;;8.50;;
12587;SDS011;6359;51.450;7.346;2023-04-22T04:36:16;10.30;;;8.00;;
12587;SDS011;6359;51.450;7.346;2023-04-22T04:38:43;12.38;;;8.38;;
12587;SDS011;6359;51.450;7.346;2023-04-22T04:41:12;11.10;;;7.55;;
12587;SDS011;6359;51.450;7.346;2023-04-22T04:43:39;10.43;;;7.93;;
12587;SDS011;6359;51.450;7.346;2023-04-22T04:46:06;9.48;;;7.50;;
12587;SDS011;6359;51.450;7.346;2023-04-22T04:48:34;13.50;;;7.90;;
12587;SDS011;6359;51.450;7.346;2023-04-22T04:51:01;9.35;;;7.13;;
12587;SDS011;6359;51.450;7.346;2023-04-22T04:53:28;11.90;;;7.70;;
12587;SDS011;6359;51.450;7.346;2023-04-22T04:55:55;11.50;;;8.27;;
12587;SDS011;6359;51.450;7.346;2023-04-22T04:58:22;10.52;;;7.60;;
12587;SDS011;6359;51.450;7.346;2023-04-22T05:00:49;9.93;;;7.55;;
12587;SDS011;6359;51.450;7.346;2023-04-22T05:03:15;9.32;;;7.60;;
12587;SDS011;6359;51.450;7.346;2023-04-22T05:05:44;12.38;;;7.60;;
12587;SDS011;6359;51.450;7.346;2023-04-22T05:08:21;11.15;;;7.93;;
12587;SDS011;6359;51.450;7.346;2023-04-22T05:10:48;10.60;;;7.78;;
12587;SDS011;6359;51.450;7.346;2023-04-22T05:13:15;10.13;;;7.97;;
12587;SDS011;6359;51.450;7.346;2023-04-22T05:15:42;11.32;;;7.63;;
12587;SDS011;6359;51.450;7.346;2023-04-22T05:18:09;10.30;;;7.57;;
12587;SDS011;6359;51.450;7.346;2023-04-22T05:20:36;8.43;;;7.53;;
12587;SDS011;6359;51.450;7.346;2023-04-22T05:23:04;9.00;;;6.95;;
12587;SDS011;6359;51.450;7.346;2023-04-22T05:25:31;8.55;;;6.80;;
12587;SDS011;6359;51.450;7.346;2023-04-22T05:27:58;8.98;;;7.40;;
12587;SDS011;6359;51.450;7.346;2023-04-22T05:30:25;10.63;;;7.55;;
12587;SDS011;6359;51.450;7.346;2023-04-22T05:32:52;10.02;;;7.05;;
12587;SDS011;6359;51.450;7.346;2023-04-22T05:35:19;9.77;;;7.38;;
12587;SDS011;6359;51.450;7.346;2023-04-22T05:37:46;8.82;;;7.45;;
12587;SDS011;6359;51.450;7.346;2023-04-22T05:40:14;8.05;;;7.22;;
12587;SDS011;6359;51.450;7.346;2023-04-22T05:42:41;10.80;;;7.22;;
12587;SDS011;6359;51.450;7.346;2023-04-22T05:45:08;8.95;;;7.60;;
12587;SDS011;6359;51.450;7.346;2023-04-22T05:47:35;10.73;;;6.90;;
12587;SDS011;6359;51.450;7.346;2023-04-22T05:50:02;10.73;;;7.32;;
12587;SDS011;6359;51.450;7.346;2023-04-22T05:52:30;8.45;;;6.68;;
12587;SDS011;6359;51.450;7.346;2023-04-22T05:54:56;8.50;;;6.90;;
12587;SDS011;6359;51.450;7.346;2023-04-22T05:57:25;8.48;;;6.82;;
12587;SDS011;6359;51.450;7.346;2023-04-22T05:59:52;8.98;;;7.13;;
12587;SDS011;6359;51.450;7.346;2023-04-22T06:02:18;8.13;;;6.75;;
12587;SDS011;6359;51.450;7.346;2023-04-22T06:04:45;10.88;;;8.20;;
12587;SDS011;6359;51.450;7.346;2023-04-22T06:07:12;10.05;;;7.72;;
12587;SDS011;6359;51.450;7.346;2023-04-22T06:09:39;7.80;;;6.95;;
12587;SDS011;6359;51.450;7.346;2023-04-22T06:12:06;7.70;;;6.88;;
12587;SDS011;6359;51.450;7.346;2023-04-22T06:14:34;11.07;;;6.85;;
12587;SDS011;6359;51.450;7.346;2023-04-22T06:17:01;8.75;;;6.45;;
12587;SDS011;6359;51.450;7.346;2023-04-22T06:19:28;9.60;;;5.32;;
12587;SDS011;6359;51.450;7.346;2023-04-22T06:21:55;5.97;;;5.38;;
12587;SDS011;6359;51.450;7.346;2023-04-22T06:24:22;9.30;;;5.20;;
12587;SDS011;6359;51.450;7.346;2023-04-22T06:26:48;5.65;;;5.03;;
12587;SDS011;6359;51.450;7.346;2023-04-22T06:29:15;5.30;;;4.40;;
12587;SDS011;6359;51.450;7.346;2023-04-22T06:31:44;8.02;;;4.53;;
12587;SDS011;6359;51.450;7.346;2023-04-22T06:34:11;5.72;;;4.47;;
12587;SDS011;6359;51.450;7.346;2023-04-22T06:36:37;5.25;;;4.47;;
12587;SDS011;6359;51.450;7.346;2023-04-22T06:39:04;5.80;;;4.43;;
12587;SDS011;6359;51.450;7.346;2023-04-22T06:41:31;10.15;;;3.83;;
12587;SDS011;6359;51.450;7.346;2023-04-22T06:43:58;3.50;;;3.20;;
12587;SDS011;6359;51.450;7.346;2023-04-22T06:46:25;3.08;;;2.78;;
12587;SDS011;6359;51.450;7.346;2023-04-22T06:48:53;4.75;;;2.13;;
12587;SDS011;6359;51.450;7.346;2023-04-22T06:51:20;3.08;;;2.10;;
12587;SDS011;6359;51.450;7.346;2023-04-22T06:53:50;2.10;;;2.00;;
12587;SDS011;6359;51.450;7.346;2023-04-22T06:56:17;2.70;;;2.08;;
12587;SDS011;6359;51.450;7.346;2023-04-22T06:58:44;1.90;;;1.80;;
12587;SDS011;6359;51.450;7.346;2023-04-22T07:01:11;2.53;;;1.73;;
12587;SDS011;6359;51.450;7.346;2023-04-22T07:03:38;2.10;;;1.60;;
12587;SDS011;6359;51.450;7.346;2023-04-22T07:06:06;1.70;;;1.60;;
12587;SDS011;6359;51.450;7.346;2023-04-22T07:08:34;3.85;;;1.73;;
12587;SDS011;6359;51.450;7.346;2023-04-22T07:11:01;1.98;;;1.73;;
12587;SDS011;6359;51.450;7.346;2023-04-22T07:13:27;3.83;;;1.70;;
12587;SDS011;6359;51.450;7.346;2023-04-22T07:15:58;3.15;;;1.70;;
12587;SDS011;6359;51.450;7.346;2023-04-22T07:18:24;3.03;;;1.73;;
12587;SDS011;6359;51.450;7.346;2023-04-22T07:20:51;3.53;;;1.70;;
12587;SDS011;6359;51.450;7.346;2023-04-22T07:23:20;2.45;;;1.70;;
12587;SDS011;6359;51.450;7.346;2023-04-22T07:25:46;1.65;;;1.35;;
12587;SDS011;6359;51.450;7.346;2023-04-22T07:28:13;2.30;;;2.03;;
12587;SDS011;6359;51.450;7.346;2023-04-22T07:30:41;3.15;;;1.38;;
12587;SDS011;6359;51.450;7.346;2023-04-22T07:33:08;10.00;;;5.63;;
12587;SDS011;6359;51.450;7.346;2023-04-22T07:35:36;3.33;;;1.92;;
12587;SDS011;6359;51.450;7.346;2023-04-22T07:38:03;4.07;;;2.58;;
12587;SDS011;6359;51.450;7.346;2023-04-22T07:40:31;6.93;;;4.25;;
12587;SDS011;6359;51.450;7.346;2023-04-22T07:42:58;3.50;;;1.42;;
12587;SDS011;6359;51.450;7.346;2023-04-22T07:45:25;5.63;;;2.22;;
12587;SDS011;6359;51.450;7.346;2023-04-22T07:47:52;9.05;;;7.35;;
12587;SDS011;6359;51.450;7.346;2023-04-22T07:50:19;4.32;;;2.28;;
12587;SDS011;6359;51.450;7.346;2023-04-22T07:52:46;0.93;;;0.93;;
12587;SDS011;6359;51.450;7.346;2023-04-22T07:55:13;4.47;;;1.40;;
12587;SDS011;6359;51.450;7.346;2023-04-22T07:57:41;4.25;;;1.30;;
12587;SDS011;6359;51.450;7.346;2023-04-22T08:00:08;1.05;;;1.05;;
12587;SDS011;6359;51.450;7.346;2023-04-22T08:02:36;3.08;;;1.30;;
12587;SDS011;6359;51.450;7.346;2023-04-22T08:05:03;3.25;;;1.25;;
12587;SDS011;6359;51.450;7.346;2023-04-22T08:07:30;3.13;;;1.40;;
12587;SDS011;6359;51.450;7.346;2023-04-22T08:09:57;1.63;;;1.27;;
12587;SDS011;6359;51.450;7.346;2023-04-22T08:12:24;2.35;;;1.15;;
12587;SDS011;6359;51.450;7.346;2023-04-22T08:14:52;2.05;;;1.30;;
12587;SDS011;6359;51.450;7.346;2023-04-22T08:17:19;1.48;;;1.05;;
12587;SDS011;6359;51.450;7.346;2023-04-22T08:19:46;1.90;;;1.20;;
12587;SDS011;6359;51.450;7.346;2023-04-22T08:22:14;1.27;;;1.17;;
12587;SDS011;6359;51.450;7.346;2023-04-22T08:24:42;1.85;;;1.23;;
12587;SDS011;6359;51.450;7.346;2023-04-22T08:27:09;1.67;;;1.00;;
12587;SDS011;6359;51.450;7.346;2023-04-22T08:29:36;2.05;;;1.50;;
12587;SDS011;6359;51.450;7.346;2023-04-22T08:32:04;1.95;;;1.15;;
12587;SDS011;6359;51.450;7.346;2023-04-22T08:34:31;1.00;;;1.00;;
12587;SDS011;6359;51.450;7.346;2023-04-22T08:36:58;1.35;;;1.17;;
12587;SDS011;6359;51.450;7.346;2023-04-22T08:39:25;2.20;;;1.30;;
12587;SDS011;6359;51.450;7.346;2023-04-22T08:41:52;3.47;;;1.30;;
12587;SDS011;6359;51.450;7.346;2023-04-22T08:44:20;2.17;;;1.80;;
12587;SDS011;6359;51.450;7.346;2023-04-22T08:46:47;4.32;;;3.33;;
12587;SDS011;6359;51.450;7.346;2023-04-22T08:49:17;1.88;;;1.23;;
12587;SDS011;6359;51.450;7.346;2023-04-22T08:51:45;1.40;;;1.30;;
12587;SDS011;6359;51.450;7.346;2023-04-22T08:54:14;2.65;;;1.77;;
12587;SDS011;6359;51.450;7.346;2023-04-22T08:56:42;2.55;;;1.48;;
12587;SDS011;6359;51.450;7.346;2023-04-22T08:59:10;1.40;;;1.30;;
12587;SDS011;6359;51.450;7.346;2023-04-22T09:01:37;4.28;;;1.30;;
12587;SDS011;6359;51.450;7.346;2023-04-22T09:04:06;1.50;;;1.40;;
12587;SDS011;6359;51.450;7.346;2023-04-22T09:06:36;2.95;;;1.77;;
12587;SDS011;6359;51.450;7.346;2023-04-22T09:09:04;1.90;;;1.35;;
12587;SDS011;6359;51.450;7.346;2023-04-22T09:11:32;1.35;;;1.25;;
12587;SDS011;6359;51.450;7.346;2023-04-22T09:13:59;2.60;;;1.55;;
12587;SDS011;6359;51.450;7.346;2023-04-22T09:16:28;1.27;;;1.17;;
12587;SDS011;6359;51.450;7.346;2023-04-22T09:18:56;3.10;;;1.92;;
12587;SDS011;6359;51.450;7.346;2023-04-22T09:21:24;3.35;;;1.42;;
12587;SDS011;6359;51.450;7.346;2023-04-22T09:23:53;10.07;;;6.70;;
12587;SDS011;6359;51.450;7.346;2023-04-22T09:26:21;5.13;;;4.18;;
12587;SDS011;6359;51.450;7.346;2023-04-22T09:28:51;2.38;;;2.00;;
12587;SDS011;6359;51.450;7.346;2023-04-22T09:31:19;1.27;;;1.17;;
12587;SDS011;6359;51.450;7.346;2023-04-22T09:33:47;1.60;;;1.42;;
12587;SDS011;6359;51.450;7.346;2023-04-22T09:36:15;1.95;;;1.27;;
12587;SDS011;6359;51.450;7.346;2023-04-22T09:38:50;4.65;;;1.30;;
12587;SDS011;6359;51.450;7.346;2023-04-22T09:41:26;4.95;;;1.15;;
12587;SDS011;6359;51.450;7.346;2023-04-22T09:43:54;1.55;;;1.10;;
12587;SDS011;6359;51.450;7.346;2023-04-22T09:46:21;1.77;;;1.10;;
12587;SDS011;6359;51.450;7.346;2023-04-22T09:48:49;1.30;;;1.20;;
12587;SDS011;6359;51.450;7.346;2023-04-22T09:51:17;1.73;;;1.20;;
12587;SDS011;6359;51.450;7.346;2023-04-22T09:53:44;1.30;;;1.17;;
12587;SDS011;6359;51.450;7.346;2023-04-22T09:59:06;1.67;;;1.17;;
12587;SDS011;6359;51.450;7.346;2023-04-22T10:01:34;1.38;;;1.20;;
12587;SDS011;6359;51.450;7.346;2023-04-22T10:04:01;4.10;;;1.48;;
12587;SDS011;6359;51.450;7.346;2023-04-22T10:06:28;2.83;;;1.10;;
12587;SDS011;6359;51.450;7.346;2023-04-22T10:08:56;1.30;;;1.20;;
12587;SDS011;6359;51.450;7.346;2023-04-22T10:11:24;3.22;;;1.17;;
12587;SDS011;6359;51.450;7.346;2023-04-22T10:13:52;1.58;;;1.10;;
12587;SDS011;6359;51.450;7.346;2023-04-22T10:16:20;3.78;;;1.30;;
12587;SDS011;6359;51.450;7.346;2023-04-22T10:18:48;2.50;;;1.80;;
12587;SDS011;6359;51.450;7.346;2023-04-22T10:21:16;1.42;;;1.02;;
12587;SDS011;6359;51.450;7.346;2023-04-22T10:23:44;1.48;;;1.38;;
12587;SDS011;6359;51.450;7.346;2023-04-22T10:26:12;2.88;;;1.20;;
12587;SDS011;6359;51.450;7.346;2023-04-22T10:29:00;5.07;;;1.95;;
12587;SDS011;6359;51.450;7.346;2023-04-22T10:31:31;2.53;;;1.95;;
12587;SDS011;6359;51.450;7.346;2023-04-22T10:34:07;2.13;;;1.45;;
12587;SDS011;6359;51.450;7.346;2023-04-22T10:36:50;2.55;;;1.95;;
12587;SDS011;6359;51.450;7.346;2023-04-22T10:39:18;2.65;;;1.30;;
12587;SDS011;6359;51.450;7.346;2023-04-22T10:41:53;1.55;;;1.20;;
12587;SDS011;6359;51.450;7.346;2023-04-22T10:44:26;2.78;;;1.30;;
12587;SDS011;6359;51.450;7.346;2023-04-22T10:46:55;3.28;;;1.20;;
12587;SDS011;6359;51.450;7.346;2023-04-22T10:49:23;2.53;;;1.50;;
12587;SDS011;6359;51.450;7.346;2023-04-22T10:51:51;3.35;;;1.65;;
12587;SDS011;6359;51.450;7.346;2023-04-22T10:57:30;2.53;;;1.25;;
12587;SDS011;6359;51.450;7.346;2023-04-22T11:00:20;1.35;;;1.25;;
12587;SDS011;6359;51.450;7.346;2023-04-22T11:02:52;5.38;;;1.27;;
12587;SDS011;6359;51.450;7.346;2023-04-22T11:05:31;5.78;;;1.30;;
12587;SDS011;6359;51.450;7.346;2023-04-22T11:08:00;5.32;;;2.70;;
12587;SDS011;6359;51.450;7.346;2023-04-22T11:10:32;1.83;;;1.55;;
12587;SDS011;6359;51.450;7.346;2023-04-22T11:13:06;2.45;;;1.45;;
12587;SDS011;6359;51.450;7.346;2023-04-22T11:15:35;2.25;;;1.50;;
12587;SDS011;6359;51.450;7.346;2023-04-22T11:18:06;2.88;;;1.58;;
12587;SDS011;6359;51.450;7.346;2023-04-22T11:20:39;2.53;;;1.55;;
12587;SDS011;6359;51.450;7.346;2023-04-22T11:23:06;2.50;;;1.65;;
12587;SDS011;6359;51.450;7.346;2023-04-22T11:25:33;3.20;;;1.50;;
12587;SDS011;6359;51.450;7.346;2023-04-22T11:28:00;2.22;;;1.60;;
12587;SDS011;6359;51.450;7.346;2023-04-22T11:30:27;2.58;;;1.50;;
12587;SDS011;6359;51.450;7.346;2023-04-22T11:32:57;1.90;;;1.63;;
12587;SDS011;6359;51.450;7.346;2023-04-22T11:35:26;4.75;;;1.70;;
12587;SDS011;6359;51.450;7.346;2023-04-22T11:37:55;3.28;;;1.70;;
12587;SDS011;6359;51.450;7.346;2023-04-22T11:40:23;2.40;;;1.60;;
12587;SDS011;6359;51.450;7.346;2023-04-22T11:42:53;2.08;;;1.70;;
12587;SDS011;6359;51.450;7.346;2023-04-22T11:45:20;2.53;;;1.90;;
12587;SDS011;6359;51.450;7.346;2023-04-22T11:47:48;3.47;;;1.90;;
12587;SDS011;6359;51.450;7.346;2023-04-22T11:50:17;2.63;;;1.92;;
12587;SDS011;6359;51.450;7.346;2023-04-22T11:52:47;2.97;;;1.50;;
12587;SDS011;6359;51.450;7.346;2023-04-22T11:55:18;1.40;;;1.30;;
12587;SDS011;6359;51.450;7.346;2023-04-22T11:57:51;5.65;;;2.05;;
12587;SDS011;6359;51.450;7.346;2023-04-22T12:00:22;2.40;;;1.60;;
12587;SDS011;6359;51.450;7.346;2023-04-22T12:02:53;1.35;;;1.25;;
12587;SDS011;6359;51.450;7.346;2023-04-22T12:05:38;6.07;;;1.60;;
12587;SDS011;6359;51.450;7.346;2023-04-22T12:08:06;2.78;;;1.52;;
12587;SDS011;6359;51.450;7.346;2023-04-22T12:10:38;3.22;;;1.80;;
12587;SDS011;6359;51.450;7.346;2023-04-22T12:13:09;2.53;;;1.38;;
12587;SDS011;6359;51.450;7.346;2023-04-22T12:15:42;2.53;;;1.40;;
12587;SDS011;6359;51.450;7.346;2023-04-22T12:18:10;3.20;;;1.80;;
12587;SDS011;6359;51.450;7.346;2023-04-22T12:20:39;5.57;;;1.60;;
12587;SDS011;6359;51.450;7.346;2023-04-22T12:23:13;2.60;;;1.98;;
12587;SDS011;6359;51.450;7.346;2023-04-22T12:25:40;2.92;;;1.50;;
12587;SDS011;6359;51.450;7.346;2023-04-22T12:28:08;2.00;;;1.52;;
12587;SDS011;6359;51.450;7.346;2023-04-22T12:30:36;3.80;;;2.28;;
12587;SDS011;6359;51.450;7.346;2023-04-22T12:33:03;2.42;;;2.05;;
12587;SDS011;6359;51.450;7.346;2023-04-22T12:35:30;2.15;;;1.70;;
12587;SDS011;6359;51.450;7.346;2023-04-22T12:37:58;2.85;;;1.98;;
12587;SDS011;6359;51.450;7.346;2023-04-22T12:40:25;3.92;;;2.20;;
12587;SDS011;6359;51.450;7.346;2023-04-22T12:42:52;1.73;;;1.33;;
12587;SDS011;6359;51.450;7.346;2023-04-22T12:45:19;4.93;;;2.22;;
12587;SDS011;6359;51.450;7.346;2023-04-22T12:47:47;1.92;;;1.70;;
12587;SDS011;6359;51.450;7.346;2023-04-22T12:50:17;2.75;;;1.58;;
12587;SDS011;6359;51.450;7.346;2023-04-22T12:52:44;4.20;;;2.05;;
12587;SDS011;6359;51.450;7.346;2023-04-22T12:55:12;3.35;;;1.50;;
12587;SDS011;6359;51.450;7.346;2023-04-22T12:57:39;2.22;;;1.52;;
12587;SDS011;6359;51.450;7.346;2023-04-22T13:00:06;4.80;;;1.83;;
12587;SDS011;6359;51.450;7.346;2023-04-22T13:02:38;3.20;;;1.63;;
12587;SDS011;6359;51.450;7.346;2023-04-22T13:05:06;2.72;;;1.90;;
12587;SDS011;6359;51.450;7.346;2023-04-22T13:07:33;4.10;;;1.90;;
12587;SDS011;6359;51.450;7.346;2023-04-22T13:10:00;2.83;;;1.60;;
12587;SDS011;6359;51.450;7.346;2023-04-22T13:12:29;1.60;;;1.45;;
12587;SDS011;6359;51.450;7.346;2023-04-22T13:14:56;3.92;;;1.50;;
12587;SDS011;6359;51.450;7.346;2023-04-22T13:17:22;3.40;;;1.60;;
12587;SDS011;6359;51.450;7.346;2023-04-22T13:19:50;5.50;;;1.67;;
12587;SDS011;6359;51.450;7.346;2023-04-22T13:22:17;4.15;;;2.10;;
12587;SDS011;6359;51.450;7.346;2023-04-22T13:24:43;4.20;;;1.70;;
12587;SDS011;6359;51.450;7.346;2023-04-22T13:27:11;2.95;;;2.08;;
12587;SDS011;6359;51.450;7.346;2023-04-22T13:29:39;2.15;;;1.52;;
12587;SDS011;6359;51.450;7.346;2023-04-22T13:32:07;2.40;;;1.70;;
12587;SDS011;6359;51.450;7.346;2023-04-22T13:34:34;3.47;;;2.42;;
12587;SDS011;6359;51.450;7.346;2023-04-22T13:37:01;5.20;;;2.45;;
12587;SDS011;6359;51.450;7.346;2023-04-22T13:39:27;3.50;;;1.38;;
12587;SDS011;6359;51.450;7.346;2023-04-22T13:41:55;5.82;;;2.00;;
12587;SDS011;6359;51.450;7.346;2023-04-22T13:44:22;8.25;;;2.10;;
12587;SDS011;6359;51.450;7.346;2023-04-22T13:46:50;2.47;;;1.75;;
12587;SDS011;6359;51.450;7.346;2023-04-22T13:49:17;2.58;;;1.80;;
12587;SDS011;6359;51.450;7.346;2023-04-22T13:51:44;4.03;;;1.90;;
12587;SDS011;6359;51.450;7.346;2023-04-22T13:54:11;1.67;;;1.48;;
12587;SDS011;6359;51.450;7.346;2023-04-22T13:56:38;3.75;;;1.98;;
12587;SDS011;6359;51.450;7.346;2023-04-22T13:59:05;2.22;;;1.50;;
12587;SDS011;6359;51.450;7.346;2023-04-22T14:01:32;4.13;;;2.03;;
12587;SDS011;6359;51.450;7.346;2023-04-22T14:04:00;2.20;;;1.73;;
12587;SDS011;6359;51.450;7.346;2023-04-22T14:06:27;4.00;;;1.50;;
12587;SDS011;6359;51.450;7.346;2023-04-22T14:08:54;2.25;;;1.13;;
12587;SDS011;6359;51.450;7.346;2023-04-22T14:11:21;2.33;;;1.70;;
12587;SDS011;6359;51.450;7.346;2023-04-22T14:13:48;3.97;;;1.60;;
12587;SDS011;6359;51.450;7.346;2023-04-22T14:16:15;3.00;;;1.50;;
12587;SDS011;6359;51.450;7.346;2023-04-22T14:18:43;5.82;;;2.13;;
12587;SDS011;6359;51.450;7.346;2023-04-22T14:21:12;4.25;;;1.70;;
12587;SDS011;6359;51.450;7.346;2023-04-22T14:23:40;1.83;;;1.70;;
12587;SDS011;6359;51.450;7.346;2023-04-22T14:26:07;3.08;;;1.75;;
12587;SDS011;6359;51.450;7.346;2023-04-22T14:28:36;2.58;;;2.10;;
12587;SDS011;6359;51.450;7.346;2023-04-22T14:31:04;4.70;;;2.20;;
12587;SDS011;6359;51.450;7.346;2023-04-22T14:33:31;3.35;;;2.38;;
12587;SDS011;6359;51.450;7.346;2023-04-22T14:35:58;5.25;;;2.03;;
12587;SDS011;6359;51.450;7.346;2023-04-22T14:38:26;4.72;;;2.10;;
12587;SDS011;6359;51.450;7.346;2023-04-22T14:40:53;7.45;;;2.55;;
12587;SDS011;6359;51.450;7.346;2023-04-22T14:43:20;3.30;;;2.53;;
12587;SDS011;6359;51.450;7.346;2023-04-22T14:45:47;4.13;;;2.45;;
12587;SDS011;6359;51.450;7.346;2023-04-22T14:48:14;6.65;;;2.13;;
12587;SDS011;6359;51.450;7.346;2023-04-22T14:50:41;4.85;;;2.20;;
12587;SDS011;6359;51.450;7.346;2023-04-22T14:53:08;3.50;;;1.83;;
12587;SDS011;6359;51.450;7.346;2023-04-22T14:55:37;2.17;;;1.90;;
12587;SDS011;6359;51.450;7.346;2023-04-22T14:58:03;3.83;;;2.38;;
12587;SDS011;6359;51.450;7.346;2023-04-22T15:00:30;4.97;;;2.70;;
12587;SDS011;6359;51.450;7.346;2023-04-22T15:02:57;4.13;;;2.22;;
12587;SDS011;6359;51.450;7.346;2023-04-22T15:05:24;3.28;;;2.45;;
12587;SDS011;6359;51.450;7.346;2023-04-22T15:07:51;4.60;;;2.70;;